Time;durP1;ratioP1;P1;durP2;ratioP2;P2;SDS_P1;SDS_P2;PMS_P1;PMS_P2;Temp;Humidity;BMP_temperature;BMP_pressure;BME280_temperature;BME280_humidity;BME280_pressure;Samples;Min_cycle;Max_cycle;Signal;HPM_P1;HPM_P2
2022/07/19 00:00:47;;;;;;;5.53;3.17;;;;;;;13.09;64.90;97912.36;1801893;79;27593;-78
2022/07/19 00:03:16;;;;;;;5.45;3.37;;;;;;;13.07;64.97;97911.73;1770114;81;25772;-77
2022/07/19 00:05:44;;;;;;;5.03;3.42;;;;;;;13.05;64.98;97907.88;1824087;78;25713;-78
2022/07/19 00:08:11;;;;;;;6.17;3.62;;;;;;;13.01;65.10;97909.38;1801412;79;25754;-79
2022/07/19 00:10:37;;;;;;;3.65;2.80;;;;;;;12.99;65.17;97914.17;1770222;81;25634;-78
2022/07/19 00:13:04;;;;;;;4.78;3.35;;;;;;;12.94;65.16;97913.97;1801794;79;27342;-77
2022/07/19 00:15:30;;;;;;;3.70;2.85;;;;;;;12.89;65.29;97906.50;1770041;81;25845;-78
2022/07/19 00:17:57;;;;;;;6.40;3.35;;;;;;;12.84;65.21;97904.95;1801921;79;25777;-78
2022/07/19 00:20:24;;;;;;;7.20;3.62;;;;;;;12.80;65.30;97909.67;1770177;81;25761;-80
2022/07/19 00:22:50;;;;;;;5.33;3.20;;;;;;;12.74;65.48;97911.86;1826410;77;25583;-79
2022/07/19 00:25:17;;;;;;;5.83;3.30;;;;;;;12.71;65.53;97904.16;1827154;77;27390;-77
2022/07/19 00:27:44;;;;;;;6.33;3.40;;;;;;;12.70;65.71;97901.13;1826945;78;25929;-77
2022/07/19 00:30:11;;;;;;;6.47;3.25;;;;;;;12.67;65.81;97906.48;1827054;78;25648;-81
2022/07/19 00:32:38;;;;;;;4.35;3.17;;;;;;;12.65;65.87;97905.02;1827100;78;25649;-80
2022/07/19 00:35:05;;;;;;;5.65;3.20;;;;;;;12.65;65.90;97909.08;1827341;78;25700;-78
2022/07/19 00:37:32;;;;;;;5.12;3.20;;;;;;;12.62;65.89;97903.04;1827049;78;27368;-78
2022/07/19 00:39:58;;;;;;;5.00;3.40;;;;;;;12.57;65.94;97908.24;1826982;78;25692;-78
2022/07/19 00:42:25;;;;;;;6.78;3.42;;;;;;;12.52;66.02;97903.17;1827053;78;25646;-78
2022/07/19 00:44:51;;;;;;;6.22;3.58;;;;;;;12.50;66.11;97908.80;1827039;78;26488;-80
2022/07/19 00:47:18;;;;;;;4.75;3.20;;;;;;;12.46;66.19;97907.55;1826928;78;25621;-78
2022/07/19 00:49:44;;;;;;;6.62;3.33;;;;;;;12.36;66.26;97901.73;1826901;77;27392;-78
2022/07/19 00:52:15;;;;;;;5.17;3.20;;;;;;;12.24;66.45;97900.70;1804487;79;25676;-77
2022/07/19 00:54:43;;;;;;;4.22;3.25;;;;;;;12.23;66.61;97894.98;1773175;80;25659;-77
2022/07/19 00:57:11;;;;;;;4.28;3.12;;;;;;;12.22;66.80;97890.61;1827295;78;26585;-79
2022/07/19 00:59:38;;;;;;;5.05;3.45;;;;;;;12.23;66.90;97894.45;1804547;78;25861;-77
2022/07/19 01:02:05;;;;;;;5.53;3.47;;;;;;;12.23;66.97;97896.33;1773159;80;27385;-77
2022/07/19 01:04:32;;;;;;;7.85;3.80;;;;;;;12.17;67.04;97893.12;1804778;79;25717;-79
2022/07/19 01:06:59;;;;;;;5.22;3.12;;;;;;;12.03;67.00;97888.23;1773156;80;25690;-77
2022/07/19 01:09:26;;;;;;;3.67;3.27;;;;;;;11.93;67.27;97881.59;1804925;79;25793;-81
2022/07/19 01:11:53;;;;;;;4.65;3.22;;;;;;;11.95;67.45;97884.92;1773076;80;25721;-77
2022/07/19 01:14:20;;;;;;;5.72;3.65;;;;;;;11.97;67.47;97886.35;1799439;78;27531;-78
2022/07/19 01:16:47;;;;;;;6.78;3.55;;;;;;;11.96;67.51;97886.55;1804877;79;25720;-78
2022/07/19 01:19:13;;;;;;;5.22;3.60;;;;;;;11.98;67.57;97893.95;1773351;80;25856;-77
2022/07/19 01:21:41;;;;;;;4.95;3.33;;;;;;;11.99;67.59;97894.27;1827409;78;25753;-78
2022/07/19 01:24:08;;;;;;;4.65;3.15;;;;;;;11.98;67.63;97890.72;1804936;79;25374;-78
2022/07/19 01:26:35;;;;;;;3.70;3.12;;;;;;;11.98;67.62;97889.37;1772970;80;27368;-80
2022/07/19 01:29:01;;;;;;;6.05;3.30;;;;;;;11.98;67.59;97891.24;1827257;78;25613;-77
2022/07/19 01:31:28;;;;;;;5.92;3.33;;;;;;;11.96;67.52;97890.61;1804994;79;25642;-78
2022/07/19 01:33:54;;;;;;;4.83;3.35;;;;;;;11.92;67.63;97893.44;1773138;80;25772;-78
2022/07/19 01:36:21;;;;;;;6.15;3.35;;;;;;;11.90;67.65;97888.23;1804925;79;25453;-78
2022/07/19 01:38:47;;;;;;;4.97;3.47;;;;;;;11.86;67.68;97890.52;1773230;80;27345;-80
2022/07/19 01:41:14;;;;;;;4.83;3.30;;;;;;;11.85;67.75;97888.84;1797414;79;25188;-81
2022/07/19 01:43:41;;;;;;;5.08;3.20;;;;;;;11.83;67.80;97889.56;1797967;79;25722;-77
2022/07/19 01:46:07;;;;;;;5.50;3.30;;;;;;;11.82;67.92;97889.28;1797765;79;25831;-78
2022/07/19 01:48:35;;;;;;;3.05;2.58;;;;;;;11.80;67.99;97888.66;1799620;77;25764;-77
2022/07/19 01:51:01;;;;;;;4.08;3.08;;;;;;;11.77;68.05;97883.66;1845957;77;27404;-79
2022/07/19 01:53:28;;;;;;;4.47;3.30;;;;;;;11.76;68.11;97889.27;1845884;77;25719;-78
2022/07/19 01:55:55;;;;;;;4.12;3.20;;;;;;;11.73;68.15;97883.71;1846095;77;25696;-80
2022/07/19 01:58:21;;;;;;;5.87;3.25;;;;;;;11.72;68.16;97888.80;1845976;77;26454;-78
2022/07/19 02:00:48;;;;;;;5.70;3.25;;;;;;;11.70;68.23;97888.20;1845653;77;25689;-78
2022/07/19 02:03:16;;;;;;;5.55;3.20;;;;;;;11.68;68.26;97884.88;1845880;77;27335;-77
2022/07/19 02:05:43;;;;;;;3.70;3.05;;;;;;;11.63;68.37;97881.94;1845907;77;25640;-77
2022/07/19 02:08:09;;;;;;;6.97;3.30;;;;;;;11.53;68.45;97885.05;1845946;77;25855;-80
2022/07/19 02:10:36;;;;;;;3.62;3.00;;;;;;;11.46;68.58;97875.28;1846140;77;25733;-77
2022/07/19 02:13:02;;;;;;;5.50;3.15;;;;;;;11.46;68.73;97879.33;1845931;77;25638;-78
2022/07/19 02:15:29;;;;;;;4.83;3.50;;;;;;;11.47;68.79;97882.35;1846029;77;27352;-78
2022/07/19 02:17:55;;;;;;;4.62;3.27;;;;;;;11.47;68.84;97883.70;1845918;77;25687;-77
2022/07/19 02:20:22;;;;;;;5.60;2.98;;;;;;;11.46;68.82;97890.14;1845993;77;25203;-78
2022/07/19 02:22:50;;;;;;;4.75;3.60;;;;;;;11.44;68.85;97888.16;1845777;77;26325;-77
2022/07/19 02:25:17;;;;;;;5.05;3.50;;;;;;;11.43;68.93;97887.33;1845842;77;25648;-80
2022/07/19 02:27:43;;;;;;;4.83;3.40;;;;;;;11.42;68.94;97890.23;1845985;77;28596;-77
2022/07/19 02:30:12;;;;;;;5.42;3.52;;;;;;;11.42;69.00;97895.64;1845564;77;25645;-77
2022/07/19 02:32:39;;;;;;;8.33;3.50;;;;;;;11.41;69.03;97888.56;1845906;77;25745;-81
2022/07/19 02:35:08;;;;;;;5.37;3.83;;;;;;;11.42;69.01;97893.77;1845938;77;25772;-80
2022/07/19 02:37:35;;;;;;;3.52;3.00;;;;;;;11.40;69.01;97889.59;1845931;77;26231;-78
2022/07/19 02:40:02;;;;;;;5.22;3.40;;;;;;;11.39;69.08;97889.28;1846101;77;27513;-78
2022/07/19 02:42:28;;;;;;;6.53;4.10;;;;;;;11.39;69.06;97893.34;1845816;77;25722;-77
2022/07/19 02:44:55;;;;;;;7.03;3.33;;;;;;;11.35;69.11;97887.50;1845817;77;25649;-79
2022/07/19 02:47:21;;;;;;;4.45;3.60;;;;;;;11.28;69.24;97891.23;1845985;77;26426;-77
2022/07/19 02:49:48;;;;;;;6.00;3.33;;;;;;;11.21;69.41;97890.39;1846813;77;25716;-78
2022/07/19 02:52:15;;;;;;;5.97;3.33;;;;;;;11.23;69.62;97900.48;1847901;77;27528;-78
2022/07/19 02:54:41;;;;;;;6.37;3.65;;;;;;;11.27;69.76;97892.27;1848206;77;25887;-79
2022/07/19 02:57:08;;;;;;;5.47;3.55;;;;;;;11.30;69.83;97898.11;1848143;77;25693;-81
2022/07/19 02:59:34;;;;;;;5.03;3.30;;;;;;;11.32;69.93;97897.39;1848345;77;26248;-77
2022/07/19 03:02:01;;;;;;;4.83;3.52;;;;;;;11.29;70.04;97898.30;1848271;77;25701;-80
2022/07/19 03:04:27;;;;;;;5.47;3.35;;;;;;;11.32;70.14;97900.61;1848229;77;28031;-78
2022/07/19 03:06:54;;;;;;;6.75;3.83;;;;;;;11.35;70.22;97900.20;1848248;77;25419;-78
2022/07/19 03:09:21;;;;;;;5.60;3.20;;;;;;;11.39;70.29;97902.28;1848222;77;25725;-78
2022/07/19 03:11:48;;;;;;;3.40;3.10;;;;;;;11.42;70.37;97906.45;1848462;77;25615;-78
2022/07/19 03:14:14;;;;;;;4.80;3.37;;;;;;;11.43;70.31;97908.12;1848350;77;25662;-78
2022/07/19 03:16:41;;;;;;;5.60;3.70;;;;;;;11.45;70.38;97908.23;1848407;77;27349;-76
2022/07/19 03:19:08;;;;;;;9.30;3.58;;;;;;;11.50;70.49;97908.95;1848309;77;25628;-80
2022/07/19 03:21:35;;;;;;;6.53;3.77;;;;;;;11.51;70.45;97905.22;1848216;77;25711;-77
2022/07/19 03:24:01;;;;;;;11.43;4.10;;;;;;;11.55;70.42;97899.20;1848232;77;26491;-78
2022/07/19 03:26:28;;;;;;;6.47;3.98;;;;;;;11.59;70.50;97899.64;1847993;77;25902;-78
2022/07/19 03:28:54;;;;;;;5.40;3.45;;;;;;;11.62;70.58;97912.72;1848129;77;27439;-78
2022/07/19 03:31:21;;;;;;;5.95;3.75;;;;;;;11.63;70.60;97908.98;1847940;77;25735;-78
2022/07/19 03:33:47;;;;;;;9.23;4.75;;;;;;;11.67;70.72;97910.77;1848303;77;25918;-80
2022/07/19 03:36:15;;;;;;;5.25;3.67;;;;;;;11.69;70.81;97916.80;1847840;77;43781;-78
2022/07/19 03:38:41;;;;;;;4.35;3.50;;;;;;;11.71;70.78;97911.48;1848281;77;25365;-78
2022/07/19 03:41:08;;;;;;;5.47;3.52;;;;;;;11.74;70.76;97917.00;1848052;77;27269;-77
2022/07/19 03:43:37;;;;;;;6.65;3.72;;;;;;;11.75;70.79;97918.18;1848234;77;25630;-78
2022/07/19 03:46:04;;;;;;;7.33;3.40;;;;;;;11.80;70.78;97921.63;1848325;77;25657;-80
2022/07/19 03:48:30;;;;;;;4.15;3.60;;;;;;;11.82;70.74;97915.50;1848410;77;25711;-77
2022/07/19 03:50:57;;;;;;;5.33;3.27;;;;;;;11.82;70.72;97921.75;1847484;77;25676;-79
2022/07/19 03:53:23;;;;;;;5.67;3.85;;;;;;;11.83;70.75;97923.38;1847480;77;29170;-77
2022/07/19 03:55:50;;;;;;;4.65;3.60;;;;;;;11.83;70.80;97918.52;1847650;77;26331;-77
2022/07/19 03:58:16;;;;;;;5.97;3.67;;;;;;;11.84;70.84;97918.80;1847719;77;25729;-81
2022/07/19 04:00:45;;;;;;;7.35;3.65;;;;;;;11.85;70.90;97917.25;1847676;77;26415;-82
2022/07/19 04:03:12;;;;;;;6.05;3.98;;;;;;;11.86;71.02;97917.56;1847548;77;25708;-77
2022/07/19 04:05:39;;;;;;;7.62;3.92;;;;;;;11.88;71.05;97916.84;1847499;77;27518;-78
2022/07/19 04:08:05;;;;;;;9.98;4.90;;;;;;;11.90;71.15;97914.77;1847555;77;25701;-77
2022/07/19 04:10:32;;;;;;;10.25;5.60;;;;;;;11.94;71.23;97916.55;1847565;77;25636;-77
2022/07/19 04:12:59;;;;;;;6.75;4.35;;;;;;;11.98;71.19;97922.36;1847716;77;25725;-76
2022/07/19 04:15:25;;;;;;;7.08;4.45;;;;;;;12.02;71.20;97918.20;1847609;77;25717;-78
2022/07/19 04:17:52;;;;;;;9.93;4.58;;;;;;;12.07;71.33;97914.37;1827592;77;27339;-77
2022/07/19 04:20:18;;;;;;;8.35;5.92;;;;;;;12.10;71.34;97913.92;1841189;77;25657;-80
2022/07/19 04:22:45;;;;;;;14.80;8.75;;;;;;;12.16;71.55;97917.17;1821802;77;25701;-77
2022/07/19 04:25:12;;;;;;;17.55;10.32;;;;;;;12.23;71.59;97916.11;1814532;79;26297;-75
2022/07/19 04:27:38;;;;;;;13.68;9.73;;;;;;;12.32;71.59;97918.63;1814365;79;25803;-75
2022/07/19 04:30:06;;;;;;;16.10;7.92;;;;;;;12.38;71.59;97917.77;1814323;79;28086;-75
2022/07/19 04:32:33;;;;;;;13.45;7.65;;;;;;;12.44;71.48;97916.39;1814148;79;25806;-75
2022/07/19 04:35:01;;;;;;;15.10;7.87;;;;;;;12.50;71.48;97920.98;1814470;79;25668;-75
2022/07/19 04:37:27;;;;;;;10.98;7.10;;;;;;;12.54;71.43;97920.05;1814383;79;25755;-75
2022/07/19 04:39:54;;;;;;;15.63;7.62;;;;;;;12.60;71.49;97917.83;1814265;79;25981;-74
2022/07/19 04:42:20;;;;;;;13.00;7.90;;;;;;;12.68;71.58;97922.20;1814405;79;27939;-74
2022/07/19 04:44:47;;;;;;;13.05;7.45;;;;;;;12.75;71.64;97921.66;1814322;79;26401;-74
2022/07/19 04:47:14;;;;;;;15.63;7.17;;;;;;;12.82;71.58;97921.09;1814224;79;25644;-75
2022/07/19 04:49:40;;;;;;;14.38;7.47;;;;;;;12.84;71.59;97919.84;1814122;79;26338;-75
2022/07/19 04:52:07;;;;;;;8.88;6.75;;;;;;;12.89;71.50;97918.70;1814202;79;25664;-75
2022/07/19 04:54:33;;;;;;;12.75;6.25;;;;;;;12.94;71.47;97917.52;1814386;79;28207;-74
2022/07/19 04:57:01;;;;;;;10.68;6.20;;;;;;;13.00;71.38;97917.20;1814130;79;25719;-75
2022/07/19 04:59:27;;;;;;;12.28;6.85;;;;;;;13.05;71.34;97922.79;1814291;79;25693;-74
2022/07/19 05:01:54;;;;;;;11.08;6.35;;;;;;;13.11;71.21;97918.41;1814525;77;26656;-75
2022/07/19 05:04:21;;;;;;;14.93;6.85;;;;;;;13.18;71.58;97925.48;1826798;76;25632;-74
2022/07/19 05:06:51;;;;;;;14.15;7.00;;;;;;;13.27;71.60;97925.56;1838180;77;27275;-74
2022/07/19 05:09:18;;;;;;;15.28;7.37;;;;;;;13.38;71.57;97919.15;1813858;79;25712;-75
2022/07/19 05:11:45;;;;;;;12.15;6.92;;;;;;;13.44;71.41;97920.98;1814051;79;25734;-74
2022/07/19 05:14:12;;;;;;;15.00;7.28;;;;;;;13.53;71.34;97918.31;1814318;79;26707;-75
2022/07/19 05:16:39;;;;;;;13.32;7.10;;;;;;;13.63;71.40;97918.17;1814208;79;25753;-74
2022/07/19 05:19:06;;;;;;;11.40;7.03;;;;;;;13.73;71.39;97914.97;1814316;79;28017;-75
2022/07/19 05:21:32;;;;;;;11.38;7.08;;;;;;;13.83;71.35;97914.48;1814296;79;25738;-74
2022/07/19 05:23:59;;;;;;;14.83;6.60;;;;;;;13.90;71.17;97910.66;1814287;79;25702;-75
2022/07/19 05:26:25;;;;;;;14.63;6.97;;;;;;;14.00;71.16;97913.73;1814314;79;26357;-74
2022/07/19 05:28:52;;;;;;;10.93;6.40;;;;;;;14.10;71.33;97915.95;1814328;79;25935;-74
2022/07/19 05:31:18;;;;;;;14.68;6.00;;;;;;;14.18;70.93;97912.12;1814358;79;28036;-74
2022/07/19 05:33:45;;;;;;;13.50;6.33;;;;;;;14.24;70.82;97905.29;1814183;79;25781;-74
2022/07/19 05:36:11;;;;;;;12.30;5.95;;;;;;;14.33;70.92;97911.27;1814248;79;25678;-75
2022/07/19 05:38:38;;;;;;;12.78;5.80;;;;;;;14.42;70.91;97908.59;1814418;79;26343;-75
2022/07/19 05:41:07;;;;;;;15.10;6.47;;;;;;;14.50;70.66;97905.58;1814328;79;25780;-75
2022/07/19 05:43:36;;;;;;;9.73;6.03;;;;;;;14.58;70.57;97899.87;1813839;79;28255;-75
2022/07/19 05:46:04;;;;;;;12.25;5.60;;;;;;;14.69;70.52;97905.09;1813718;79;25661;-75
2022/07/19 05:48:31;;;;;;;11.90;6.00;;;;;;;14.78;70.19;97888.25;1817483;76;25681;-75
2022/07/19 05:50:58;;;;;;;11.65;5.90;;;;;;;14.89;69.97;97887.19;1828074;77;25854;-75
2022/07/19 05:53:25;;;;;;;9.73;5.47;;;;;;;15.00;69.79;97889.97;1829436;77;25745;-75
2022/07/19 05:55:52;;;;;;;10.13;5.30;;;;;;;15.11;69.73;97887.02;1814076;79;27422;-75
2022/07/19 05:58:19;;;;;;;8.20;4.95;;;;;;;15.21;69.60;97877.81;1814245;79;25625;-74
2022/07/19 06:03:32;;;;;;;11.90;6.87;;;;;;;15.48;69.93;97876.36;1814262;79;25717;-75
2022/07/19 06:05:59;;;;;;;11.33;6.42;;;;;;;15.63;69.73;97869.70;1814309;79;25804;-75
2022/07/19 06:08:25;;;;;;;12.43;5.75;;;;;;;15.73;69.85;97875.41;1814391;79;28031;-75
2022/07/19 06:10:52;;;;;;;9.60;6.28;;;;;;;15.83;69.66;97877.03;1814148;79;25732;-75
2022/07/19 06:13:19;;;;;;;8.35;6.35;;;;;;;15.94;69.70;97874.86;1814319;79;26539;-74
2022/07/19 06:15:46;;;;;;;8.58;5.42;;;;;;;16.02;69.43;97875.90;1814396;79;25739;-75
2022/07/19 06:18:12;;;;;;;9.90;5.30;;;;;;;16.11;69.40;97878.56;1814336;79;25653;-75
2022/07/19 06:20:39;;;;;;;10.85;5.67;;;;;;;16.21;69.31;97876.08;1814402;79;27467;-75
2022/07/19 06:23:06;;;;;;;10.78;5.50;;;;;;;16.33;69.17;97876.62;1814182;79;26099;-75
2022/07/19 06:25:32;;;;;;;8.93;4.60;;;;;;;16.42;68.96;97869.77;1814315;79;25730;-75
2022/07/19 06:27:59;;;;;;;7.55;4.17;;;;;;;16.53;68.61;97863.48;1814161;79;25785;-75
2022/07/19 06:30:25;;;;;;;7.53;4.30;;;;;;;16.65;68.05;97865.70;1814441;79;25685;-75
2022/07/19 06:32:52;;;;;;;6.70;4.00;;;;;;;16.78;67.94;97876.35;1814432;79;28180;-75
2022/07/19 06:35:18;;;;;;;9.23;4.37;;;;;;;16.89;67.50;97874.14;1814451;79;25775;-76
2022/07/19 06:37:45;;;;;;;7.03;3.33;;;;;;;17.01;67.17;97876.01;1814569;79;25650;-76
2022/07/19 06:40:12;;;;;;;7.05;4.20;;;;;;;17.10;66.65;97865.00;1814440;79;25675;-76
2022/07/19 06:42:38;;;;;;;11.38;4.22;;;;;;;17.21;66.57;97875.05;1814187;79;25969;-76
2022/07/19 06:45:06;;;;;;;7.20;4.03;;;;;;;17.32;66.25;97865.16;1819250;77;27233;-76
2022/07/19 06:47:33;;;;;;;4.80;3.67;;;;;;;17.44;65.91;97862.68;1829140;77;25727;-76
2022/07/19 06:49:59;;;;;;;10.20;3.98;;;;;;;17.55;65.56;97867.25;1835258;77;25682;-76
2022/07/19 06:52:26;;;;;;;8.55;4.10;;;;;;;17.64;65.10;97862.25;1826243;78;26296;-76
2022/07/19 06:54:53;;;;;;;9.88;4.05;;;;;;;17.74;65.12;97861.63;1819804;78;25632;-76
2022/07/19 06:57:20;;;;;;;7.58;3.98;;;;;;;17.85;64.97;97860.20;1805775;79;28250;-76
2022/07/19 06:59:46;;;;;;;5.97;4.28;;;;;;;17.96;64.74;97866.66;1802773;78;25724;-76
2022/07/19 07:02:13;;;;;;;8.23;4.00;;;;;;;18.09;64.39;97863.60;1805369;79;25711;-76
2022/07/19 07:04:39;;;;;;;4.50;3.42;;;;;;;18.20;64.19;97872.25;1805303;79;25833;-76
2022/07/19 07:07:06;;;;;;;7.55;4.10;;;;;;;18.31;64.20;97868.60;1805159;79;25650;-76
2022/07/19 07:09:32;;;;;;;5.58;4.30;;;;;;;18.41;63.99;97868.45;1805259;79;28043;-76
2022/07/19 07:11:59;;;;;;;5.65;4.15;;;;;;;18.51;64.10;97865.88;1805319;79;25734;-76
2022/07/19 07:14:25;;;;;;;7.17;4.10;;;;;;;18.61;63.90;97860.05;1805933;78;25648;-76
2022/07/19 07:16:52;;;;;;;9.05;4.00;;;;;;;18.74;64.07;97862.13;1811310;78;25793;-76
2022/07/19 07:19:19;;;;;;;5.05;3.60;;;;;;;18.85;63.65;97863.38;1789852;79;25751;-76
2022/07/19 07:21:46;;;;;;;5.53;3.60;;;;;;;18.95;63.23;97854.51;1773566;80;27991;-76
2022/07/19 07:24:13;;;;;;;7.03;3.60;;;;;;;19.06;62.98;97861.22;1773420;80;25679;-76
2022/07/19 07:26:39;;;;;;;6.67;3.85;;;;;;;19.20;62.72;97861.63;1773703;80;25633;-76
2022/07/19 07:29:06;;;;;;;6.75;4.35;;;;;;;19.31;62.40;97851.13;1773614;80;25756;-76
2022/07/19 07:31:33;;;;;;;6.62;4.30;;;;;;;19.42;62.12;97853.42;1773613;80;25627;-76
2022/07/19 07:33:59;;;;;;;6.72;4.03;;;;;;;19.54;61.80;97854.14;1773518;80;27420;-76
2022/07/19 07:36:26;;;;;;;6.87;4.10;;;;;;;19.68;62.04;97851.24;1773456;80;25707;-76
2022/07/19 07:38:52;;;;;;;6.40;3.92;;;;;;;19.81;61.53;97847.80;1773617;80;25255;-76
2022/07/19 07:41:19;;;;;;;9.00;3.60;;;;;;;19.92;61.52;97842.19;1773653;80;25697;-76
2022/07/19 07:43:46;;;;;;;7.75;3.58;;;;;;;20.13;61.01;97847.28;1773680;80;25651;-76
2022/07/19 07:46:12;;;;;;;3.47;2.92;;;;;;;20.31;61.14;97840.01;1773677;80;27468;-75
2022/07/19 07:48:39;;;;;;;8.50;3.80;;;;;;;20.46;60.70;97838.78;1773578;80;25607;-75
2022/07/19 07:51:05;;;;;;;8.53;3.40;;;;;;;20.62;60.49;97836.97;1771257;80;26713;-75
2022/07/19 07:53:32;;;;;;;6.65;3.42;;;;;;;20.83;59.93;97840.64;1765455;81;25877;-75
2022/07/19 07:55:59;;;;;;;7.97;3.40;;;;;;;21.12;59.84;97841.89;1765506;81;25426;-74
2022/07/19 07:58:25;;;;;;;4.67;3.20;;;;;;;22.00;59.06;97844.61;1765304;81;27364;-75
2022/07/19 08:00:52;;;;;;;5.55;2.70;;;;;;;22.00;59.06;97844.61;1765436;81;25714;-75
2022/07/19 08:03:18;;;;;;;6.10;2.67;;;;;;;22.49;57.46;97846.23;1765115;81;25703;-75
2022/07/19 08:05:47;;;;;;;7.22;3.10;;;;;;;22.98;56.91;97845.60;1765223;81;26436;-75
2022/07/19 08:08:14;;;;;;;6.37;2.55;;;;;;;23.48;56.99;97830.79;1765408;81;25463;-75
2022/07/19 08:10:41;;;;;;;4.87;3.12;;;;;;;24.03;56.42;97826.84;1765322;81;27406;-75
2022/07/19 08:13:08;;;;;;;6.17;2.75;;;;;;;24.48;55.13;97824.03;1765358;81;25783;-75
2022/07/19 08:15:37;;;;;;;8.63;3.02;;;;;;;24.95;54.62;97827.42;1765234;81;25659;-76
2022/07/19 08:18:04;;;;;;;5.33;3.22;;;;;;;25.42;53.43;97829.31;1765292;81;25701;-76
2022/07/19 08:20:31;;;;;;;4.40;2.80;;;;;;;25.74;52.67;97831.37;1765408;81;25661;-76
2022/07/19 08:22:58;;;;;;;5.05;2.98;;;;;;;26.03;51.75;97829.83;1765348;81;27359;-76
2022/07/19 08:25:24;;;;;;;7.30;2.87;;;;;;;26.34;50.29;97827.40;1765298;81;25730;-76
2022/07/19 08:27:51;;;;;;;9.60;2.25;;;;;;;26.52;48.85;97830.69;1765388;81;25770;-76
2022/07/19 08:30:17;;;;;;;3.95;2.37;;;;;;;26.74;47.68;97822.52;1765398;81;25808;-76
2022/07/19 08:32:44;;;;;;;5.25;2.60;;;;;;;27.05;46.87;97828.91;1765260;81;25750;-76
2022/07/19 08:35:11;;;;;;;4.40;2.50;;;;;;;27.38;46.30;97824.05;1765359;81;28197;-76
2022/07/19 08:37:38;;;;;;;5.10;2.20;;;;;;;27.67;45.79;97821.75;1765255;81;25663;-77
2022/07/19 08:40:07;;;;;;;3.58;2.00;;;;;;;27.86;44.87;97827.98;1765340;81;25688;-77
2022/07/19 08:42:35;;;;;;;4.03;1.98;;;;;;;28.03;43.86;97823.69;1765325;81;25693;-77
2022/07/19 08:45:05;;;;;;;3.98;2.05;;;;;;;28.11;43.73;97822.39;1765324;81;25686;-77
2022/07/19 08:47:32;;;;;;;5.65;2.10;;;;;;;28.30;43.69;97813.32;1765383;81;26827;-77
2022/07/19 08:49:59;;;;;;;3.22;1.82;;;;;;;28.72;42.89;97813.91;1765252;81;25772;-77
2022/07/19 08:52:27;;;;;;;3.65;1.90;;;;;;;28.85;41.87;97819.97;1765137;81;25732;-78
2022/07/19 08:54:56;;;;;;;4.15;2.10;;;;;;;28.67;41.58;97819.59;1765070;81;26533;-77
2022/07/19 09:00:10;;;;;;;6.35;2.10;;;;;;;28.68;40.86;97818.45;1765071;81;27489;-77
2022/07/19 09:02:36;;;;;;;2.87;1.77;;;;;;;29.10;40.41;97807.89;1734991;81;25689;-78
2022/07/19 09:05:08;;;;;;;4.70;1.95;;;;;;;29.40;40.21;97808.40;1765355;81;25663;-78
2022/07/19 09:07:37;;;;;;;3.58;2.00;;;;;;;29.64;40.52;97811.55;1765572;81;25679;-77
2022/07/19 09:10:24;;;;;;;3.25;2.10;;;;;;;29.99;39.77;97808.81;1765363;81;25976;-78
2022/07/19 09:13:07;;;;;;;5.00;2.22;;;;;;;29.98;38.49;97805.78;1765368;81;27425;-78
2022/07/19 09:15:53;;;;;;;3.65;2.00;;;;;;;29.98;38.89;97801.61;1765273;81;25391;-77
2022/07/19 09:18:27;;;;;;;5.00;2.00;;;;;;;30.33;38.48;97807.38;1765010;81;25769;-77
2022/07/19 09:21:01;;;;;;;3.08;2.45;;;;;;;30.68;37.48;97803.16;1765385;81;25692;-78
2022/07/19 09:23:28;;;;;;;3.40;2.30;;;;;;;30.95;37.10;97797.16;1765430;81;25746;-78
2022/07/19 09:25:58;;;;;;;3.12;1.90;;;;;;;31.07;36.53;97799.23;1765159;81;27538;-77
2022/07/19 09:28:29;;;;;;;5.05;1.65;;;;;;;31.21;35.34;97794.86;1765095;81;25694;-78
2022/07/19 09:30:58;;;;;;;3.13;2.07;;;;;;;31.45;34.83;97799.23;1765481;81;25964;-78
2022/07/19 09:33:29;;;;;;;2.77;2.40;;;;;;;31.59;34.29;97800.38;1765400;81;25851;-78
2022/07/19 09:36:00;;;;;;;3.35;2.17;;;;;;;31.59;34.62;97791.42;1765399;81;25774;-77
2022/07/19 09:38:35;;;;;;;3.60;2.12;;;;;;;31.67;33.71;97789.75;1765302;81;27448;-77
2022/07/19 09:41:15;;;;;;;3.65;2.20;;;;;;;31.67;33.79;97788.36;1765204;81;25772;-77
2022/07/19 09:44:02;;;;;;;3.80;2.60;;;;;;;31.70;33.87;97787.11;1668360;85;25287;-77
2022/07/19 09:46:38;;;;;;;4.20;2.25;;;;;;;31.87;33.92;97792.33;1668216;86;25811;-77
2022/07/19 09:49:17;;;;;;;3.50;2.20;;;;;;;31.77;33.64;97792.95;1668268;86;25990;-77
2022/07/19 09:51:51;;;;;;;4.30;2.10;;;;;;;31.66;33.63;97794.52;1668186;85;27466;-77
2022/07/19 09:54:24;;;;;;;3.37;2.20;;;;;;;31.57;33.64;97785.36;1668136;86;25646;-77
2022/07/19 09:56:53;;;;;;;2.87;1.95;;;;;;;31.58;33.43;97791.77;1668278;86;25325;-77
2022/07/19 09:59:22;;;;;;;10.40;2.50;;;;;;;31.63;33.36;97791.00;1667977;86;25839;-77
2022/07/19 10:01:52;;;;;;;2.20;1.90;;;;;;;31.76;32.79;97783.55;1668291;86;25924;-77
2022/07/19 10:04:22;;;;;;;4.80;2.08;;;;;;;31.61;32.63;97780.75;1668489;85;28098;-77
2022/07/19 10:06:51;;;;;;;3.83;2.22;;;;;;;31.52;33.29;97781.36;1668187;85;25969;-77
2022/07/19 10:09:21;;;;;;;3.90;2.02;;;;;;;31.45;33.40;97770.76;1668325;85;25863;-77
2022/07/19 10:11:47;;;;;;;4.80;2.55;;;;;;;31.41;33.84;97772.58;1668186;85;25752;-77
2022/07/19 10:14:14;;;;;;;6.92;2.45;;;;;;;31.39;33.83;97769.33;1668319;85;25904;-77
2022/07/19 10:17:04;;;;;;;4.97;2.42;;;;;;;31.27;33.79;97774.83;1668305;85;28129;-77
2022/07/19 10:19:43;;;;;;;4.60;2.85;;;;;;;31.13;33.84;97782.03;1640002;87;25774;-77
2022/07/19 10:22:14;;;;;;;7.40;2.90;;;;;;;30.93;33.41;97782.73;1641000;87;25704;-77
2022/07/19 10:24:52;;;;;;;10.83;3.37;;;;;;;30.78;33.09;97783.31;1641123;87;25871;-77
2022/07/19 10:27:30;;;;;;;4.47;2.40;;;;;;;30.62;33.45;97784.42;1582036;90;25893;-77
2022/07/19 10:30:13;;;;;;;5.12;2.45;;;;;;;30.42;33.69;97775.36;1574884;91;27547;-77
2022/07/19 10:32:44;;;;;;;6.08;2.98;;;;;;;30.16;33.91;97776.80;1574933;90;25759;-77
2022/07/19 10:35:30;;;;;;;7.03;3.05;;;;;;;30.24;33.85;97775.14;1575184;89;25790;-77
2022/07/19 10:38:10;;;;;;;5.17;2.83;;;;;;;30.45;33.87;97779.67;1574938;91;25845;-77
2022/07/19 10:40:56;;;;;;;3.67;2.35;;;;;;;30.44;33.50;97775.25;1587356;89;25852;-77
2022/07/19 10:43:21;;;;;;;6.10;2.40;;;;;;;30.66;33.44;97777.62;1615739;88;27622;-77
2022/07/19 10:46:02;;;;;;;3.30;2.30;;;;;;;30.73;33.70;97773.16;1604099;89;25813;-76
2022/07/19 10:48:51;;;;;;;4.50;2.10;;;;;;;30.96;33.38;97779.86;1604250;89;25758;-76
2022/07/19 10:51:33;;;;;;;2.50;2.20;;;;;;;31.18;32.99;97774.03;1604219;88;25727;-76
2022/07/19 10:54:06;;;;;;;4.90;2.02;;;;;;;31.28;33.05;97764.45;1608607;87;25900;-76
2022/07/19 10:56:37;;;;;;;4.15;2.02;;;;;;;31.51;33.07;97768.59;1608972;89;27421;-76
2022/07/19 10:59:12;;;;;;;5.60;2.25;;;;;;;31.67;32.74;97760.45;1609017;89;25343;-76
2022/07/19 11:01:56;;;;;;;4.33;2.02;;;;;;;31.95;32.48;97757.92;1608810;89;25299;-76
2022/07/19 11:04:28;;;;;;;3.70;2.10;;;;;;;32.12;31.87;97760.58;1609079;89;26453;-76
2022/07/19 11:07:13;;;;;;;3.42;2.65;;;;;;;32.14;31.63;97752.06;1616985;87;25910;-76
2022/07/19 11:09:44;;;;;;;7.10;2.22;;;;;;;32.26;31.65;97750.50;1633995;87;27394;-75
2022/07/19 11:12:37;;;;;;;6.42;2.58;;;;;;;32.25;30.76;97744.09;1580774;90;26111;-75
2022/07/19 11:15:08;;;;;;;6.85;2.37;;;;;;;32.25;30.76;97744.09;1526439;93;25976;-76
2022/07/19 11:17:35;;;;;;;3.55;2.40;;;;;;;32.25;30.90;97748.28;1526451;93;25884;-75
2022/07/19 11:20:10;;;;;;;3.65;2.52;;;;;;;32.44;30.95;97747.77;1526452;93;25747;-76
2022/07/19 11:22:41;;;;;;;6.47;2.67;;;;;;;32.60;31.42;97753.52;1524318;93;27439;-76
2022/07/19 11:25:11;;;;;;;3.95;2.30;;;;;;;32.43;30.36;97749.75;1520282;94;26403;-77
2022/07/19 11:27:43;;;;;;;2.92;2.12;;;;;;;32.32;30.42;97742.16;1520279;94;25780;-76
2022/07/19 11:30:12;;;;;;;2.80;2.20;;;;;;;32.27;30.14;97745.97;1536342;90;26443;-77
2022/07/19 11:32:41;;;;;;;5.78;2.62;;;;;;;32.34;29.96;97744.03;1610917;89;25818;-76
2022/07/19 11:35:11;;;;;;;5.42;2.37;;;;;;;32.40;29.88;97739.26;1610910;89;28170;-76
2022/07/19 11:37:40;;;;;;;3.65;2.27;;;;;;;32.35;30.08;97738.10;1610726;89;25931;-76
2022/07/19 11:40:09;;;;;;;3.95;2.10;;;;;;;32.21;30.17;97737.59;1610909;87;25853;-76
2022/07/19 11:42:39;;;;;;;3.67;2.70;;;;;;;32.04;30.07;97734.92;1610746;89;26611;-76